Time;durP1;ratioP1;P1;durP2;ratioP2;P2;SDS_P1;SDS_P2;PMS_P1;PMS_P2;Temp;Humidity;BMP_temperature;BMP_pressure;BME280_temperature;BME280_humidity;BME280_pressure;Samples;Min_cycle;Max_cycle;Signal;HPM_P1;HPM_P2
2022/08/15 00:00:33;;;;;;;11.20;7.70;;;;;;;22.82;63.96;99287.16;5135595;27;20063;-73
2022/08/15 00:03:02;;;;;;;10.77;7.75;;;;;;;22.81;63.96;99285.50;5135287;27;20388;-73
2022/08/15 00:05:38;;;;;;;11.40;8.10;;;;;;;22.70;64.61;99286.00;5135196;27;20115;-74
2022/08/15 00:08:10;;;;;;;12.23;7.47;;;;;;;22.56;64.82;99281.47;5133711;27;20047;-74
2022/08/15 00:11:04;;;;;;;10.48;7.57;;;;;;;22.72;63.94;99281.22;5133523;27;20129;-72
2022/08/15 00:13:51;;;;;;;9.15;7.10;;;;;;;22.65;64.12;99280.31;5133454;27;20400;-72
2022/08/15 00:16:32;;;;;;;14.63;7.57;;;;;;;22.69;63.64;99287.06;5134798;27;20039;-72
2022/08/15 00:19:02;;;;;;;10.32;7.45;;;;;;;22.74;63.16;99284.56;5134710;27;20070;-73
2022/08/15 00:21:33;;;;;;;10.82;7.40;;;;;;;22.82;62.56;99286.34;5135076;27;20107;-72
2022/08/15 00:24:02;;;;;;;11.73;7.50;;;;;;;22.77;62.87;99283.34;5133201;27;20053;-72
2022/08/15 00:26:50;;;;;;;10.43;7.55;;;;;;;22.59;63.65;99281.09;5134555;27;20388;-72
2022/08/15 00:29:25;;;;;;;12.48;7.78;;;;;;;22.39;65.30;99280.88;5134800;27;20050;-72
2022/08/15 00:32:08;;;;;;;11.45;7.55;;;;;;;22.32;67.23;99273.69;5134497;27;20046;-72
2022/08/15 00:34:56;;;;;;;11.10;7.72;;;;;;;22.22;68.38;99280.25;5134250;27;20509;-73
2022/08/15 00:37:24;;;;;;;11.70;8.23;;;;;;;22.10;67.88;99280.91;5134239;27;20050;-72
2022/08/15 00:39:53;;;;;;;11.32;7.53;;;;;;;22.14;67.95;99272.22;5134298;27;20039;-72
2022/08/15 00:42:25;;;;;;;13.20;8.40;;;;;;;22.12;67.61;99277.00;5134433;27;20035;-75
2022/08/15 00:44:57;;;;;;;11.48;7.90;;;;;;;22.19;66.91;99277.91;5134144;27;20043;-76
2022/08/15 00:47:35;;;;;;;11.65;8.10;;;;;;;22.14;66.89;99277.66;5134535;27;20376;-77
2022/08/15 00:50:08;;;;;;;14.20;8.90;;;;;;;22.11;67.28;99280.75;5133530;27;20043;-76
2022/08/15 00:52:59;;;;;;;12.18;8.23;;;;;;;22.00;68.08;99286.59;5134069;27;20099;-76
2022/08/15 00:55:30;;;;;;;10.43;7.60;;;;;;;21.98;67.99;99288.69;5132608;27;20126;-76
2022/08/15 00:58:02;;;;;;;9.68;7.25;;;;;;;21.90;68.26;99286.91;5134006;27;20062;-75
2022/08/15 01:00:35;;;;;;;12.37;8.73;;;;;;;21.88;69.46;99288.13;5134658;27;20043;-75
2022/08/15 01:03:10;;;;;;;10.45;7.65;;;;;;;21.85;70.47;99293.94;5133461;27;20270;-74
2022/08/15 01:05:45;;;;;;;11.15;7.50;;;;;;;21.80;71.36;99285.50;5132609;27;20130;-75
2022/08/15 01:08:16;;;;;;;10.80;8.10;;;;;;;21.82;70.69;99283.47;5134140;27;20403;-72
2022/08/15 01:10:48;;;;;;;11.38;7.65;;;;;;;21.75;71.52;99274.38;5133476;27;20126;-72
2022/08/15 01:13:33;;;;;;;11.50;7.70;;;;;;;21.70;71.17;99281.19;5133810;27;20066;-71
2022/08/15 01:16:24;;;;;;;11.45;7.75;;;;;;;21.95;69.77;99295.34;5133909;27;20468;-73
2022/08/15 01:19:07;;;;;;;10.90;7.68;;;;;;;21.94;69.08;99295.53;5132033;27;20047;-71
2022/08/15 01:22:17;;;;;;;10.88;7.85;;;;;;;22.12;67.48;99304.16;5132709;27;20460;-72
2022/08/15 01:24:55;;;;;;;12.07;7.90;;;;;;;21.90;68.52;99291.47;5091921;27;20055;-73
2022/08/15 01:27:47;;;;;;;11.70;8.02;;;;;;;21.92;68.07;99293.00;5132263;27;20482;-73
2022/08/15 01:30:23;;;;;;;11.60;7.82;;;;;;;21.89;68.59;99292.50;5133928;27;20047;-72
2022/08/15 01:33:13;;;;;;;11.13;7.93;;;;;;;21.85;69.55;99291.22;5133525;27;20043;-72
2022/08/15 01:35:42;;;;;;;10.57;7.95;;;;;;;21.80;70.57;99296.34;5133737;27;20763;-75
2022/08/15 01:38:24;;;;;;;13.43;7.80;;;;;;;21.67;71.08;99289.72;5133496;27;20043;-74
2022/08/15 01:41:22;;;;;;;13.85;7.53;;;;;;;21.68;70.70;99291.41;5133630;27;20039;-74
2022/08/15 01:44:14;;;;;;;13.98;8.27;;;;;;;21.66;71.25;99296.19;5133073;28;20118;-75
2022/08/15 01:47:06;;;;;;;11.13;7.95;;;;;;;21.63;71.90;99291.13;5133257;27;20039;-74
2022/08/15 01:49:54;;;;;;;12.23;7.88;;;;;;;21.64;71.76;99298.25;5133520;27;20077;-74
2022/08/15 01:52:32;;;;;;;12.50;8.07;;;;;;;21.59;71.73;99305.25;5133347;28;20441;-74
2022/08/15 01:55:25;;;;;;;15.75;9.25;;;;;;;21.61;71.81;99298.59;5133198;28;20039;-74
2022/08/15 01:58:06;;;;;;;14.73;8.13;;;;;;;21.54;71.97;99308.53;5133264;27;20122;-73
2022/08/15 02:00:37;;;;;;;10.90;7.65;;;;;;;21.67;72.58;99297.03;5133711;28;20043;-74
2022/08/15 02:03:11;;;;;;;11.88;7.80;;;;;;;21.55;72.34;99288.50;5132906;27;20503;-71
2022/08/15 02:05:49;;;;;;;12.20;8.38;;;;;;;21.47;73.00;99291.31;5133279;28;20040;-72
2022/08/15 02:08:25;;;;;;;12.38;8.27;;;;;;;21.38;73.67;99292.41;5133508;28;20043;-72
2022/08/15 02:11:05;;;;;;;12.52;8.35;;;;;;;21.33;73.75;99290.25;5133243;28;20423;-72
2022/08/15 02:13:54;;;;;;;12.00;7.88;;;;;;;21.23;74.45;99288.78;5133186;28;20071;-74
2022/08/15 02:16:25;;;;;;;11.70;8.38;;;;;;;21.14;74.93;99288.88;5135972;27;20402;-73
2022/08/15 02:18:54;;;;;;;12.07;8.50;;;;;;;21.13;76.19;99284.50;5137032;27;20058;-74
2022/08/15 02:21:27;;;;;;;11.87;8.30;;;;;;;21.18;76.20;99278.50;5137451;27;20051;-73
2022/08/15 02:24:07;;;;;;;12.10;8.80;;;;;;;21.26;75.43;99283.00;5137161;27;20275;-74
2022/08/15 02:26:48;;;;;;;;;;;;;;;21.29;75.49;99288.09;5137832;27;20043;-74
2022/08/15 02:29:21;;;;;;;12.57;8.55;;;;;;;21.28;76.59;99279.13;5137362;27;20006;-73
2022/08/15 02:31:53;;;;;;;12.43;8.95;;;;;;;21.24;76.74;99280.47;5137179;27;20096;-74
2022/08/15 02:34:24;;;;;;;14.93;8.85;;;;;;;21.19;77.50;99273.91;5137112;27;20050;-74
2022/08/15 02:37:18;;;;;;;12.52;8.50;;;;;;;21.17;78.53;99278.69;5136545;27;20460;-74
2022/08/15 02:39:53;;;;;;;12.50;8.70;;;;;;;21.12;78.75;99282.78;5136418;27;20096;-72
2022/08/15 02:42:25;;;;;;;12.25;8.77;;;;;;;21.09;79.65;99277.72;5136684;27;20470;-72
2022/08/15 02:44:55;;;;;;;13.65;8.55;;;;;;;21.10;78.48;99282.13;5136528;27;20039;-75
2022/08/15 02:47:24;;;;;;;13.05;8.10;;;;;;;21.30;76.68;99278.91;5135513;27;20440;-74
2022/08/15 02:49:54;;;;;;;10.88;8.95;;;;;;;21.26;76.98;99283.00;5134998;27;20065;-72
2022/08/15 02:52:22;;;;;;;15.35;8.50;;;;;;;21.36;75.88;99279.03;5136425;27;20043;-72
2022/08/15 02:54:51;;;;;;;11.82;8.90;;;;;;;21.47;75.51;99291.31;5136201;27;20548;-74
2022/08/15 02:57:31;;;;;;;14.27;8.45;;;;;;;21.33;76.63;99286.72;5136615;27;20071;-73
2022/08/15 03:00:23;;;;;;;14.23;9.18;;;;;;;21.31;77.37;99286.03;5136649;27;20182;-72
2022/08/15 03:02:58;;;;;;;12.90;9.20;;;;;;;21.40;77.34;99279.50;5136405;27;20080;-74
2022/08/15 03:05:29;;;;;;;16.05;8.30;;;;;;;21.51;77.22;99279.03;5136104;27;20053;-73
2022/08/15 03:07:57;;;;;;;14.48;8.80;;;;;;;21.40;77.64;99290.34;5135927;27;20066;-74
2022/08/15 03:10:26;;;;;;;17.65;9.30;;;;;;;21.39;78.69;99299.50;5136255;27;20039;-74
2022/08/15 03:13:01;;;;;;;18.13;9.48;;;;;;;21.28;79.03;99289.13;5135976;27;20039;-73
2022/08/15 03:15:38;;;;;;;13.45;8.73;;;;;;;21.20;79.90;99286.44;5136047;27;20041;-74
2022/08/15 03:18:08;;;;;;;13.55;8.70;;;;;;;21.14;80.36;99291.59;5134292;27;20082;-73
2022/08/15 03:20:39;;;;;;;13.98;8.63;;;;;;;21.08;81.01;99292.31;5136140;27;20169;-75
2022/08/15 03:23:11;;;;;;;12.48;9.20;;;;;;;21.06;81.22;99286.25;5135852;27;20047;-73
2022/08/15 03:25:43;;;;;;;13.55;8.95;;;;;;;20.90;82.61;99289.06;5135910;27;20479;-74
2022/08/15 03:28:17;;;;;;;15.75;9.02;;;;;;;21.07;81.37;99284.38;5134396;27;20047;-72
2022/08/15 03:30:58;;;;;;;13.30;8.85;;;;;;;20.88;83.14;99285.72;5135223;27;20095;-71
2022/08/15 03:33:27;;;;;;;13.38;9.10;;;;;;;20.70;84.66;99293.28;5135829;27;20122;-73
2022/08/15 03:36:17;;;;;;;13.00;9.45;;;;;;;20.46;87.60;99284.31;5135341;27;20490;-72
2022/08/15 03:38:50;;;;;;;12.18;9.43;;;;;;;20.35;88.72;99284.69;5135541;27;20092;-73
2022/08/15 03:41:23;;;;;;;;;;;;;;;20.47;88.00;99288.72;5136275;27;20464;-74
2022/08/15 03:43:53;;;;;;;15.88;9.68;;;;;;;20.52;87.68;99297.13;5135660;27;19926;-71
2022/08/15 03:46:23;;;;;;;12.63;9.57;;;;;;;20.57;87.80;99302.88;5135629;27;20039;-71
2022/08/15 03:48:56;;;;;;;15.52;9.75;;;;;;;20.57;88.34;99311.00;5135394;27;20047;-71
2022/08/15 03:51:26;;;;;;;14.18;9.77;;;;;;;20.52;89.43;99310.69;5135409;27;20040;-71
2022/08/15 03:53:59;;;;;;;;;;;;;;;20.55;90.09;99307.59;5134225;27;20568;-71
2022/08/15 03:56:32;;;;;;;13.75;9.10;;;;;;;20.45;90.82;99312.41;5135400;27;20264;-70
2022/08/15 03:59:01;;;;;;;14.80;10.50;;;;;;;20.39;93.18;99309.56;5135069;27;20118;-71
2022/08/15 04:01:36;;;;;;;14.75;9.57;;;;;;;20.47;92.58;99309.53;5135148;27;20058;-71
2022/08/15 04:04:09;;;;;;;15.57;9.73;;;;;;;20.45;94.42;99312.41;5134887;27;20082;-71
2022/08/15 04:06:45;;;;;;;12.15;8.80;;;;;;;20.49;92.37;99312.91;5135077;27;20057;-71
2022/08/15 04:09:27;;;;;;;16.30;9.25;;;;;;;20.75;89.78;99317.97;5135087;27;20060;-70
2022/08/15 04:11:58;;;;;;;15.32;9.70;;;;;;;20.88;88.40;99323.66;5134808;27;20419;-72
2022/08/15 04:14:28;;;;;;;15.45;9.55;;;;;;;21.04;87.04;99312.69;5135149;27;20349;-71
2022/08/15 04:17:03;;;;;;;18.98;9.75;;;;;;;20.93;88.18;99321.22;5134418;27;20050;-71
2022/08/15 04:19:46;;;;;;;13.52;9.63;;;;;;;20.93;88.97;99315.81;5134690;27;20047;-71
2022/08/15 04:22:18;;;;;;;15.10;9.50;;;;;;;21.19;86.75;99309.16;5134643;27;20134;-71
2022/08/15 04:25:00;;;;;;;14.82;8.93;;;;;;;21.59;83.62;99311.50;5134872;27;20118;-74
2022/08/15 04:27:38;;;;;;;16.65;9.63;;;;;;;21.76;81.50;99311.34;5134819;27;20050;-71
2022/08/15 04:30:13;;;;;;;15.32;10.00;;;;;;;21.95;79.83;99305.34;5134236;27;20122;-72
2022/08/15 04:32:46;;;;;;;;;;;;;;;21.89;79.97;99303.38;5134874;27;20065;-72
2022/08/15 04:35:27;;;;;;;18.67;11.18;;;;;;;22.10;78.65;99299.91;5134487;27;19962;-71
2022/08/15 04:37:58;;;;;;;17.10;10.60;;;;;;;22.61;74.63;99298.03;5133702;27;20463;-74
2022/08/15 04:40:29;;;;;;;16.13;10.60;;;;;;;22.72;73.15;99311.13;5134383;27;20125;-72
2022/08/15 04:43:20;;;;;;;19.15;12.18;;;;;;;22.97;71.73;99313.47;5134167;27;20039;-77
2022/08/15 04:45:49;;;;;;;15.13;10.10;;;;;;;22.78;73.00;99323.13;5134343;27;20065;-73
2022/08/15 04:48:22;;;;;;;16.20;9.63;;;;;;;22.63;74.29;99312.28;5134001;27;20051;-74
2022/08/15 04:50:52;;;;;;;15.55;9.43;;;;;;;22.74;74.15;99317.19;5134262;27;20122;-75
2022/08/15 04:53:23;;;;;;;17.80;11.25;;;;;;;22.90;72.83;99313.44;5133807;27;20142;-75
2022/08/15 04:55:59;;;;;;;16.50;10.52;;;;;;;23.02;71.86;99313.75;5134010;27;20039;-76
2022/08/15 04:58:31;;;;;;;14.73;9.85;;;;;;;22.99;71.30;99314.97;5134553;27;20090;-78
2022/08/15 05:01:18;;;;;;;12.48;9.52;;;;;;;22.86;72.96;99309.41;5134057;27;20043;-74
2022/08/15 05:03:51;;;;;;;13.32;9.93;;;;;;;22.89;72.34;99300.03;5134084;27;20059;-74
2022/08/15 05:06:24;;;;;;;15.73;9.82;;;;;;;22.96;72.13;99303.63;5133675;27;20077;-75
2022/08/15 05:08:59;;;;;;;14.20;10.50;;;;;;;22.92;71.89;99302.34;5132345;27;20562;-76
2022/08/15 05:11:30;;;;;;;15.25;10.38;;;;;;;23.03;72.18;99302.66;5134160;27;20047;-75
2022/08/15 05:14:18;;;;;;;15.20;9.30;;;;;;;23.22;70.13;99309.31;5133425;27;20343;-76
2022/08/15 05:17:05;;;;;;;17.77;9.45;;;;;;;23.45;69.26;99308.22;5133535;27;20115;-76
2022/08/15 05:19:39;;;;;;;17.43;9.67;;;;;;;23.90;66.34;99301.44;5133861;27;20066;-81
2022/08/15 05:22:07;;;;;;;16.92;10.27;;;;;;;23.77;66.56;99307.66;5133841;27;20275;-76
2022/08/15 05:24:36;;;;;;;18.15;11.95;;;;;;;24.03;65.92;99303.38;5133910;27;20039;-79
2022/08/15 05:27:05;;;;;;;17.67;10.05;;;;;;;24.47;63.78;99303.00;5133178;27;20406;-77
2022/08/15 05:29:37;;;;;;;;;;;;;;;24.98;60.71;99300.56;5133990;27;20439;-76
2022/08/15 05:32:09;;;;;;;16.33;9.57;;;;;;;25.63;58.60;99298.91;5133218;27;19920;-75
2022/08/15 05:34:47;;;;;;;16.80;9.85;;;;;;;25.83;57.59;99303.53;5131990;27;20104;-76
2022/08/15 05:37:17;;;;;;;16.25;9.40;;;;;;;26.46;55.27;99306.50;5133178;27;20039;-75
2022/08/15 05:39:49;;;;;;;15.25;9.75;;;;;;;26.63;54.04;99307.66;5133213;27;20043;-76
2022/08/15 05:42:29;;;;;;;16.77;9.43;;;;;;;26.81;52.87;99305.03;5131869;27;20138;-77
2022/08/15 05:45:06;;;;;;;;;;;;;;;27.62;50.45;99304.22;5133540;27;20403;-77
2022/08/15 05:47:40;;;;;;;13.55;8.68;;;;;;;27.42;51.57;99302.72;5133288;27;19986;-78
2022/08/15 05:50:19;;;;;;;14.20;8.32;;;;;;;28.23;49.64;99302.50;5132250;27;20142;-75
2022/08/15 05:53:04;;;;;;;13.15;8.82;;;;;;;28.62;48.17;99300.34;5136303;27;20078;-81
2022/08/15 05:55:41;;;;;;;14.27;8.45;;;;;;;29.27;46.33;99300.44;5136408;27;20054;-81
2022/08/15 05:58:29;;;;;;;14.32;7.95;;;;;;;29.70;44.84;99293.81;5137408;27;20480;-82
2022/08/15 06:01:17;;;;;;;14.45;8.40;;;;;;;30.22;43.18;99296.66;5137075;27;20039;-82
2022/08/15 06:03:54;;;;;;;11.18;7.50;;;;;;;30.39;42.53;99297.53;5137573;27;20051;-81
2022/08/15 06:06:30;;;;;;;13.48;8.18;;;;;;;30.53;42.20;99298.94;5137097;27;20049;-81
2022/08/15 06:09:32;;;;;;;12.75;7.75;;;;;;;30.83;40.93;99295.97;5137194;27;20045;-77
2022/08/15 06:12:16;;;;;;;11.25;7.30;;;;;;;30.81;40.42;99295.38;5136766;27;20502;-76
2022/08/15 06:14:56;;;;;;;9.15;7.55;;;;;;;30.96;40.53;99303.06;5137088;27;20480;-78
2022/08/15 06:17:29;;;;;;;10.25;7.47;;;;;;;31.59;39.90;99299.19;5137084;27;20058;-77
2022/08/15 06:20:03;;;;;;;11.30;7.47;;;;;;;31.65;39.00;99300.94;5137495;27;20035;-80
2022/08/15 06:23:05;;;;;;;15.45;7.30;;;;;;;31.76;39.26;99302.81;5136808;27;20122;-74
2022/08/15 06:25:44;;;;;;;14.57;7.97;;;;;;;31.78;38.96;99305.31;5136886;27;20054;-85
2022/08/15 06:28:42;;;;;;;12.07;7.90;;;;;;;32.19;37.93;99298.41;5137016;27;20047;-77
2022/08/15 06:31:31;;;;;;;12.98;7.15;;;;;;;32.12;38.38;99303.28;5136375;27;20054;-81
2022/08/15 06:34:27;;;;;;;11.75;7.22;;;;;;;30.78;40.70;99306.84;5136141;27;20047;-76
2022/08/15 06:37:22;;;;;;;15.20;7.68;;;;;;;30.48;41.73;99301.56;5134951;27;20050;-76
2022/08/15 06:40:09;;;;;;;12.32;7.63;;;;;;;29.82;42.89;99302.88;5136401;27;20361;-77
2022/08/15 06:42:56;;;;;;;14.77;8.05;;;;;;;29.43;44.51;99310.72;5135941;27;20464;-76
2022/08/15 06:45:34;;;;;;;12.77;7.72;;;;;;;29.74;44.64;99301.34;5136023;27;20126;-86
2022/08/15 06:48:06;;;;;;;11.00;7.90;;;;;;;30.22;43.44;99302.16;5137699;27;20053;-77
2022/08/15 06:50:59;;;;;;;11.80;7.90;;;;;;;31.04;41.62;99306.25;5136751;27;20450;-81
2022/08/15 06:53:34;;;;;;;13.88;7.85;;;;;;;31.58;39.93;99303.03;5136335;27;20088;-85
2022/08/15 06:56:17;;;;;;;12.98;8.10;;;;;;;31.55;40.11;99307.13;5136286;27;20043;-83
2022/08/15 06:58:52;;;;;;;11.77;7.75;;;;;;;32.03;39.30;99313.09;5136492;27;20039;-83
2022/08/15 07:01:34;;;;;;;12.32;7.78;;;;;;;31.94;39.18;99309.09;5136145;27;20058;-81
2022/08/15 07:04:30;;;;;;;12.38;7.55;;;;;;;31.10;41.08;99304.44;5136122;27;20470;-83
2022/08/15 07:07:11;;;;;;;13.13;8.50;;;;;;;30.52;42.47;99297.25;5135863;27;20093;-84
2022/08/15 07:09:50;;;;;;;11.40;7.85;;;;;;;30.41;43.62;99303.66;5136382;27;20076;-84
2022/08/15 07:12:27;;;;;;;11.65;8.20;;;;;;;30.49;42.42;99306.81;5135606;27;20044;-74
2022/08/15 07:15:14;;;;;;;11.18;8.00;;;;;;;30.37;42.44;99305.19;5136053;27;20115;-74
2022/08/15 07:17:48;;;;;;;11.00;8.02;;;;;;;30.47;43.65;99310.91;5135945;27;20043;-76
2022/08/15 07:20:24;;;;;;;14.10;7.78;;;;;;;30.48;42.76;99307.91;5135869;27;20071;-77
2022/08/15 07:23:21;;;;;;;12.90;8.38;;;;;;;30.06;43.71;99309.19;5134440;27;20054;-74
2022/08/15 07:25:52;;;;;;;10.35;7.90;;;;;;;29.81;43.57;99313.03;5135609;27;20119;-74
2022/08/15 07:28:27;;;;;;;15.70;8.10;;;;;;;29.76;43.79;99314.84;5135166;27;20490;-74
2022/08/15 07:31:02;;;;;;;13.65;8.45;;;;;;;29.60;43.88;99311.72;5135784;27;20517;-74
2022/08/15 07:33:40;;;;;;;10.50;7.82;;;;;;;29.42;44.86;99314.53;5135562;27;20498;-74
2022/08/15 07:36:19;;;;;;;11.70;7.72;;;;;;;29.57;44.35;99306.72;5135425;27;20054;-74
2022/08/15 07:39:20;;;;;;;9.90;7.82;;;;;;;29.31;45.05;99312.63;5135287;27;20071;-74
2022/08/15 07:42:11;;;;;;;13.75;8.00;;;;;;;29.52;44.49;99298.34;5135404;27;20043;-72
2022/08/15 07:45:02;;;;;;;9.43;7.53;;;;;;;29.69;44.20;99303.13;5135438;27;20039;-74
2022/08/15 07:47:35;;;;;;;13.48;7.90;;;;;;;29.93;43.96;99302.06;5135528;27;20159;-72
2022/08/15 07:50:32;;;;;;;13.80;7.80;;;;;;;30.28;42.99;99306.66;5135240;27;20043;-73
2022/08/15 07:53:10;;;;;;;10.55;7.18;;;;;;;30.14;43.81;99301.44;5135380;27;20437;-74
2022/08/15 07:56:05;;;;;;;11.30;7.15;;;;;;;30.27;43.41;99305.81;5135480;27;20416;-73
2022/08/15 07:58:55;;;;;;;13.52;7.43;;;;;;;30.58;42.46;99307.28;5134840;27;20054;-74
2022/08/15 08:01:33;;;;;;;12.65;7.65;;;;;;;30.40;42.99;99316.56;5134795;27;20471;-73
2022/08/15 08:04:09;;;;;;;11.32;7.90;;;;;;;30.49;42.36;99309.56;5133670;27;20074;-74
2022/08/15 08:06:57;;;;;;;11.70;7.50;;;;;;;30.56;42.51;99314.94;5134935;27;20066;-74
2022/08/15 08:09:32;;;;;;;8.82;6.78;;;;;;;30.50;42.07;99313.19;5134734;27;20492;-74
2022/08/15 08:12:10;;;;;;;10.02;7.05;;;;;;;29.99;43.13;99312.06;5133709;27;20444;-74
2022/08/15 08:14:48;;;;;;;10.50;7.63;;;;;;;29.72;43.79;99311.72;5134513;27;20054;-75
2022/08/15 08:17:25;;;;;;;11.88;8.00;;;;;;;29.77;43.98;99311.00;5134667;27;20476;-74
2022/08/15 08:20:20;;;;;;;9.73;6.60;;;;;;;30.10;41.91;99294.75;5134579;27;20114;-75
2022/08/15 08:22:56;;;;;;;11.63;6.85;;;;;;;30.45;41.46;99302.06;5134846;27;20047;-74
2022/08/15 08:25:28;;;;;;;8.75;7.00;;;;;;;30.36;41.09;99304.38;5133254;27;20047;-74
2022/08/15 08:28:28;;;;;;;10.70;7.30;;;;;;;30.50;41.71;99310.44;5133003;27;20070;-74
2022/08/15 08:31:07;;;;;;;12.60;6.82;;;;;;;30.51;41.25;99303.84;5134949;27;20470;-73
2022/08/15 08:37:26;;;;;;;8.93;6.70;;;;;;;30.66;41.04;99309.66;5134187;27;20088;-74
2022/08/15 08:42:55;;;;;;;12.52;7.72;;;;;;;30.42;40.94;99310.81;5132288;27;20043;-75
2022/08/15 08:45:33;;;;;;;10.30;6.88;;;;;;;30.06;41.20;99304.53;5134134;27;20369;-74
2022/08/15 08:48:19;;;;;;;9.80;6.40;;;;;;;30.16;41.53;99302.03;5132943;27;20491;-74
2022/08/15 08:51:04;;;;;;;10.50;6.80;;;;;;;29.38;42.90;99307.88;5134267;27;20043;-74
2022/08/15 08:53:48;;;;;;;9.57;6.97;;;;;;;29.37;42.54;99306.19;5134371;27;20043;-74
2022/08/15 08:56:26;;;;;;;10.05;6.70;;;;;;;29.45;42.56;99300.34;5132253;27;20051;-74
2022/08/15 08:59:09;;;;;;;9.70;6.90;;;;;;;29.55;42.49;99303.38;5133685;27;20050;-74
2022/08/15 09:01:40;;;;;;;13.18;7.22;;;;;;;29.75;42.04;99302.19;5132476;27;20108;-73
2022/08/15 09:04:14;;;;;;;11.27;7.05;;;;;;;29.58;42.45;99296.56;5133788;27;20051;-74
2022/08/15 09:06:50;;;;;;;9.20;6.38;;;;;;;29.66;41.50;99298.13;5133946;27;20138;-73
2022/08/15 09:09:27;;;;;;;;;;;;;;;29.49;41.65;99298.00;5132930;27;20464;-73
2022/08/15 09:12:02;;;;;;;9.63;6.20;;;;;;;29.72;41.56;99300.72;5133604;27;19919;-73
2022/08/15 09:14:34;;;;;;;10.07;6.18;;;;;;;29.68;41.55;99298.72;5132253;27;20050;-74
2022/08/15 09:17:25;;;;;;;9.65;6.50;;;;;;;29.74;41.67;99290.34;5131906;27;20043;-73
2022/08/15 09:20:07;;;;;;;12.70;7.00;;;;;;;29.91;40.64;99293.19;5132232;27;20054;-73
2022/08/15 09:22:49;;;;;;;8.98;6.57;;;;;;;30.01;40.42;99285.16;5133446;27;20047;-73
2022/08/15 09:25:23;;;;;;;10.07;6.50;;;;;;;30.08;40.28;99283.16;5133430;27;20035;-73
2022/08/15 09:28:08;;;;;;;10.50;6.75;;;;;;;30.10;40.63;99280.16;5133518;27;20039;-74
2022/08/15 09:31:00;;;;;;;11.32;6.82;;;;;;;30.20;40.39;99275.69;5133768;27;20035;-74
2022/08/15 09:33:55;;;;;;;10.25;6.85;;;;;;;30.29;38.77;99270.66;5131894;27;20047;-74
2022/08/15 09:37:08;;;;;;;8.45;5.43;;;;;;;30.34;36.06;99283.69;5131993;27;20063;-74
2022/08/15 09:40:02;;;;;;;8.75;6.07;;;;;;;30.40;36.41;99274.44;5126199;27;20412;-74
2022/08/15 09:43:13;;;;;;;8.27;5.68;;;;;;;30.46;37.53;99271.56;5133307;27;20043;-73
2022/08/15 09:46:02;;;;;;;9.65;6.05;;;;;;;30.38;37.41;99265.59;5133148;27;20128;-74
2022/08/15 09:48:57;;;;;;;11.32;6.28;;;;;;;30.25;37.33;99263.97;5133221;28;20043;-73
2022/08/15 09:51:42;;;;;;;9.27;6.10;;;;;;;30.18;37.68;99264.13;5131763;28;20142;-74
2022/08/15 09:54:17;;;;;;;10.73;6.55;;;;;;;30.34;37.40;99261.69;5131812;28;20555;-73
2022/08/15 09:57:23;;;;;;;9.93;5.97;;;;;;;30.49;36.88;99259.22;5131971;28;20047;-75
2022/08/15 09:59:57;;;;;;;8.30;6.03;;;;;;;30.58;35.48;99265.16;5133285;27;20081;-74
2022/08/15 10:02:33;;;;;;;7.70;5.57;;;;;;;30.57;36.06;99256.06;5132990;27;20043;-74
2022/08/15 10:05:28;;;;;;;9.35;5.80;;;;;;;30.29;36.84;99258.81;5131624;28;20054;-74
2022/08/15 10:08:07;;;;;;;8.80;6.28;;;;;;;30.48;37.33;99243.78;5133115;28;20043;-73
2022/08/15 10:10:52;;;;;;;11.13;6.20;;;;;;;30.25;37.69;99252.97;5132737;27;20075;-73
2022/08/15 10:13:28;;;;;;;9.15;6.45;;;;;;;30.40;37.46;99244.19;5132983;27;20121;-73
2022/08/15 10:15:58;;;;;;;8.20;6.53;;;;;;;30.22;36.91;99241.66;5131731;27;20175;-73
2022/08/15 10:19:08;;;;;;;8.57;6.57;;;;;;;30.09;37.85;99229.81;5131314;28;20134;-74
2022/08/15 10:21:41;;;;;;;11.80;6.57;;;;;;;30.30;37.82;99232.97;5132991;28;20439;-74
2022/08/15 10:24:27;;;;;;;11.25;6.90;;;;;;;30.47;37.45;99229.19;5133020;28;20125;-74
2022/08/15 10:27:15;;;;;;;8.93;5.70;;;;;;;30.66;37.06;99224.34;5131475;28;20043;-75
2022/08/15 10:29:52;;;;;;;11.13;6.32;;;;;;;30.80;37.14;99229.56;5132564;27;20047;-74
2022/08/15 10:32:40;;;;;;;10.07;6.65;;;;;;;30.90;37.42;99238.84;5132683;28;20464;-73
2022/08/15 10:35:39;;;;;;;9.75;6.43;;;;;;;30.62;37.18;99225.09;5132497;27;20051;-73
2022/08/15 10:38:10;;;;;;;10.48;6.90;;;;;;;30.73;37.02;99225.03;5135398;27;20047;-72
2022/08/15 10:41:13;;;;;;;9.45;5.80;;;;;;;30.78;35.43;99230.63;5136739;27;20403;-73
2022/08/15 10:43:51;;;;;;;10.30;6.40;;;;;;;30.84;35.83;99226.03;5134937;27;20043;-74
2022/08/15 10:46:38;;;;;;;8.93;6.03;;;;;;;30.74;36.09;99223.94;5135177;27;20059;-75
2022/08/15 10:49:25;;;;;;;12.98;6.15;;;;;;;31.03;35.74;99221.13;5135297;27;20043;-73
2022/08/15 10:52:10;;;;;;;11.80;6.03;;;;;;;30.80;35.75;99216.63;5135467;27;20089;-73
2022/08/15 10:55:00;;;;;;;9.23;6.77;;;;;;;30.92;35.80;99211.03;5136152;27;20058;-74
2022/08/15 10:57:38;;;;;;;10.38;6.50;;;;;;;31.14;35.33;99197.34;5136444;27;20043;-74
2022/08/15 11:00:18;;;;;;;9.93;6.00;;;;;;;31.05;35.08;99202.44;5136410;27;20039;-74
2022/08/15 11:03:12;;;;;;;8.73;5.97;;;;;;;31.13;35.25;99209.44;5135049;27;20054;-74
2022/08/15 11:05:42;;;;;;;8.38;5.82;;;;;;;30.85;35.63;99202.09;5134690;27;20047;-74
2022/08/15 11:08:17;;;;;;;9.20;5.65;;;;;;;30.98;35.31;99201.75;5134964;27;20047;-73
2022/08/15 11:10:46;;;;;;;7.75;5.57;;;;;;;31.18;34.93;99206.78;5135838;27;20092;-74
2022/08/15 11:13:17;;;;;;;10.23;5.60;;;;;;;31.32;34.12;99197.94;5136033;27;20114;-74
2022/08/15 11:15:54;;;;;;;7.85;5.32;;;;;;;31.41;33.21;99203.03;5134926;27;20096;-74
2022/08/15 11:18:34;;;;;;;8.35;5.60;;;;;;;31.53;32.80;99199.06;5134450;27;20047;-74
2022/08/15 11:21:17;;;;;;;6.85;5.03;;;;;;;31.67;32.20;99196.78;5135762;27;20039;-74
2022/08/15 11:23:53;;;;;;;7.40;5.15;;;;;;;31.50;32.81;99202.34;5134720;27;20472;-74
2022/08/15 11:26:27;;;;;;;6.47;5.10;;;;;;;31.57;32.22;99199.41;5134364;27;20504;-74
2022/08/15 11:29:10;;;;;;;7.22;4.82;;;;;;;31.45;32.67;99201.41;5135458;27;20047;-74
2022/08/15 11:31:52;;;;;;;7.72;5.20;;;;;;;31.66;32.55;99200.63;5135194;27;20051;-74
2022/08/15 11:34:32;;;;;;;7.43;4.90;;;;;;;31.80;32.03;99195.59;5135517;27;20066;-73
2022/08/15 11:37:15;;;;;;;8.43;4.88;;;;;;;31.98;31.29;99194.44;5134359;27;20039;-73
2022/08/15 11:39:48;;;;;;;8.57;4.80;;;;;;;32.00;30.54;99192.25;5135123;27;20118;-73
2022/08/15 11:42:20;;;;;;;7.93;4.68;;;;;;;31.82;30.71;99191.50;5135420;27;20039;-73
2022/08/15 11:44:56;;;;;;;8.13;4.78;;;;;;;31.58;31.39;99201.06;5135412;27;20053;-75
2022/08/15 11:47:27;;;;;;;6.32;4.72;;;;;;;31.62;31.33;99192.03;5133158;27;20039;-73
2022/08/15 11:50:02;;;;;;;7.80;5.10;;;;;;;31.82;30.43;99190.66;5134927;27;20403;-72
2022/08/15 11:52:34;;;;;;;6.80;4.53;;;;;;;31.76;30.15;99189.78;5134763;27;20083;-74
2022/08/15 11:55:20;;;;;;;6.35;4.50;;;;;;;31.81;30.17;99187.06;5135316;27;20039;-73
2022/08/15 11:57:57;;;;;;;6.60;5.22;;;;;;;31.93;30.27;99175.91;5133698;27;20055;-74
2022/08/15 12:00:30;;;;;;;10.73;5.20;;;;;;;31.93;30.18;99169.56;5135133;27;20046;-73
2022/08/15 12:02:58;;;;;;;7.10;4.82;;;;;;;31.87;29.90;99171.44;5133532;27;20067;-73
2022/08/15 12:05:49;;;;;;;6.38;4.82;;;;;;;31.71;30.13;99175.88;5133488;27;20043;-72
2022/08/15 12:08:36;;;;;;;12.60;5.13;;;;;;;31.45;31.91;99165.59;5134641;27;20043;-74
2022/08/15 12:11:06;;;;;;;6.80;5.03;;;;;;;31.52;31.39;99158.81;5133432;27;20051;-74
2022/08/15 12:13:37;;;;;;;6.80;4.90;;;;;;;31.48;31.21;99157.69;5134383;27;20039;-73
2022/08/15 12:16:25;;;;;;;7.40;5.22;;;;;;;31.46;31.78;99156.25;5133450;27;20047;-74
2022/08/15 12:18:58;;;;;;;6.00;4.60;;;;;;;31.61;31.87;99168.31;5134760;27;20043;-74
2022/08/15 12:21:47;;;;;;;9.18;5.00;;;;;;;31.81;31.77;99156.75;5134248;27;20064;-74
2022/08/15 12:24:36;;;;;;;9.65;4.93;;;;;;;32.01;31.59;99161.66;5133071;27;20047;-73
2022/08/15 12:27:14;;;;;;;6.55;4.57;;;;;;;32.26;30.79;99157.53;5134461;27;20050;-74
2022/08/15 12:29:45;;;;;;;7.32;5.00;;;;;;;32.38;30.25;99156.31;5132749;27;20479;-74
2022/08/15 12:32:19;;;;;;;8.45;4.63;;;;;;;32.36;29.40;99155.75;5134356;27;20062;-74